Time;durP1;ratioP1;P1;durP2;ratioP2;P2;SDS_P1;SDS_P2;PMS_P1;PMS_P2;Temp;Humidity;BMP_temperature;BMP_pressure;BME280_temperature;BME280_humidity;BME280_pressure;Samples;Min_cycle;Max_cycle;Signal;HPM_P1;HPM_P2
2022/11/14 00:00:28;;;;;;;29.70;22.30;;;;;;;;;;5045518;28;20113;-76
2022/11/14 00:02:54;;;;;;;30.40;23.45;;;;;;;;;;5049149;28;20045;-76
2022/11/14 00:05:20;;;;;;;30.63;23.30;;;;;;;;;;5046394;28;20101;-76
2022/11/14 00:07:47;;;;;;;30.67;22.55;;;;;;;;;;5080526;28;20106;-76
2022/11/14 00:10:16;;;;;;;29.33;20.08;;;;;;;;;;5048053;28;20075;-76
2022/11/14 00:12:42;;;;;;;27.85;21.10;;;;;;;;;;5048053;28;20041;-76
2022/11/14 00:15:09;;;;;;;33.85;23.17;;;;;;;;;;5047009;28;20045;-76
2022/11/14 00:17:35;;;;;;;29.83;23.33;;;;;;;;;;5048471;28;20392;-76
2022/11/14 00:20:01;;;;;;;31.85;21.60;;;;;;;;;;5047606;28;20108;-76
2022/11/14 00:22:27;;;;;;;29.58;20.70;;;;;;;;;;5047922;28;20049;-76
2022/11/14 00:24:53;;;;;;;31.23;22.73;;;;;;;;;;5046274;28;20059;-76
2022/11/14 00:27:19;;;;;;;27.38;18.73;;;;;;;;;;5045378;28;20136;-76
2022/11/14 00:29:45;;;;;;;29.73;20.92;;;;;;;;;;5080792;28;20052;-76
2022/11/14 00:32:11;;;;;;;28.98;20.20;;;;;;;;;;5047900;28;20071;-76
2022/11/14 00:34:37;;;;;;;29.58;20.58;;;;;;;;;;5043039;28;20107;-76
2022/11/14 00:37:03;;;;;;;28.20;19.38;;;;;;;;;;5044460;28;20163;-76
2022/11/14 00:39:29;;;;;;;30.60;20.52;;;;;;;;;;5045757;28;20458;-76
2022/11/14 00:41:55;;;;;;;29.40;20.00;;;;;;;;;;5047163;28;20045;-76
2022/11/14 00:44:21;;;;;;;29.40;20.40;;;;;;;;;;5078198;28;20140;-76
2022/11/14 00:46:47;;;;;;;30.40;19.00;;;;;;;;;;5046053;28;20500;-76
2022/11/14 00:49:13;;;;;;;28.45;20.25;;;;;;;;;;5046380;28;20053;-76
2022/11/14 00:51:39;;;;;;;33.17;21.27;;;;;;;;;;5043993;28;20045;-76
2022/11/14 00:54:05;;;;;;;32.35;20.85;;;;;;;;;;5046918;28;20063;-76
2022/11/14 00:56:31;;;;;;;28.80;18.30;;;;;;;;;;5046161;28;20059;-76
2022/11/14 00:58:57;;;;;;;27.45;18.05;;;;;;;;;;5079318;28;20060;-76
2022/11/14 01:01:23;;;;;;;29.17;18.17;;;;;;;;;;5043632;28;20037;-76
2022/11/14 01:03:50;;;;;;;30.83;20.00;;;;;;;;;;5080102;28;20451;-75
2022/11/14 01:06:17;;;;;;;31.98;20.27;;;;;;;;;;5044012;28;20044;-75
2022/11/14 01:08:43;;;;;;;30.48;20.58;;;;;;;;;;5045507;28;20047;-76
2022/11/14 01:11:11;;;;;;;29.48;19.45;;;;;;;;;;5043147;28;20084;-76
2022/11/14 01:13:37;;;;;;;30.45;20.55;;;;;;;;;;5045629;28;20049;-76
2022/11/14 01:16:03;;;;;;;32.95;20.42;;;;;;;;;;5046178;28;20052;-75
2022/11/14 01:18:29;;;;;;;29.27;18.58;;;;;;;;;;5047295;28;20480;-75
2022/11/14 01:20:55;;;;;;;32.95;20.50;;;;;;;;;;5049713;28;20068;-75
2022/11/14 01:23:21;;;;;;;30.58;19.70;;;;;;;;;;5047132;28;20064;-75
2022/11/14 01:25:47;;;;;;;32.90;19.45;;;;;;;;;;5043761;28;20041;-75
2022/11/14 01:28:15;;;;;;;32.33;20.42;;;;;;;;;;5045015;28;20447;-75
2022/11/14 01:30:41;;;;;;;30.08;19.90;;;;;;;;;;5045646;28;20049;-75
2022/11/14 01:33:07;;;;;;;34.90;21.40;;;;;;;;;;5048085;28;20052;-75
2022/11/14 01:35:34;;;;;;;34.95;21.02;;;;;;;;;;5045662;28;20111;-75
2022/11/14 01:38:00;;;;;;;36.90;20.98;;;;;;;;;;5079555;28;20056;-75
2022/11/14 01:40:26;;;;;;;37.80;21.88;;;;;;;;;;5043821;28;20075;-75
2022/11/14 01:43:11;;;;;;;31.25;20.38;;;;;;;;;;5044129;28;20346;-75
2022/11/14 01:45:46;;;;;;;35.25;18.95;;;;;;;;;;5044909;28;20456;-75
2022/11/14 01:48:20;;;;;;;37.05;21.10;;;;;;;;;;5046222;28;20049;-76
2022/11/14 01:50:49;;;;;;;38.47;21.55;;;;;;;;;;5040453;28;20148;-75
2022/11/14 01:53:15;;;;;;;33.85;20.77;;;;;;;;;;5075292;28;20106;-75
2022/11/14 01:55:41;;;;;;;33.05;21.27;;;;;;;;;;5046764;28;20045;-75
2022/11/14 01:58:07;;;;;;;34.58;21.30;;;;;;;;;;5044456;28;20048;-75
2022/11/14 02:00:36;;;;;;;33.78;21.30;;;;;;;;;;5045018;28;20091;-75
2022/11/14 02:03:02;;;;;;;35.60;21.65;;;;;;;;;;5045168;28;20091;-75
2022/11/14 02:05:29;;;;;;;32.00;19.55;;;;;;;;;;5043494;28;20058;-75
2022/11/14 02:07:55;;;;;;;33.58;21.20;;;;;;;;;;5046991;28;20039;-75
2022/11/14 02:10:21;;;;;;;36.78;21.52;;;;;;;;;;5042849;28;20098;-75
2022/11/14 02:12:48;;;;;;;34.03;21.35;;;;;;;;;;5079017;28;20053;-75
2022/11/14 02:15:14;;;;;;;33.42;21.50;;;;;;;;;;5041781;28;20094;-75
2022/11/14 02:17:40;;;;;;;33.90;21.25;;;;;;;;;;5044455;28;20041;-75
2022/11/14 02:20:06;;;;;;;36.03;21.65;;;;;;;;;;5046176;28;20486;-75
2022/11/14 02:22:32;;;;;;;32.80;21.02;;;;;;;;;;5050951;28;20110;-75
2022/11/14 02:24:58;;;;;;;35.22;20.67;;;;;;;;;;5046080;28;20477;-75
2022/11/14 02:27:24;;;;;;;32.40;21.65;;;;;;;;;;5046084;28;20099;-75
2022/11/14 02:29:50;;;;;;;33.35;22.38;;;;;;;;;;5043957;28;20041;-75
2022/11/14 02:32:16;;;;;;;37.33;22.60;;;;;;;;;;5073717;28;20053;-75
2022/11/14 02:34:42;;;;;;;35.97;22.88;;;;;;;;;;5047409;28;20053;-75
2022/11/14 02:37:08;;;;;;;34.17;22.02;;;;;;;;;;5061439;28;20049;-75
2022/11/14 02:39:34;;;;;;;35.88;22.20;;;;;;;;;;5046470;28;20403;-75
2022/11/14 02:42:01;;;;;;;37.25;21.65;;;;;;;;;;5047068;28;20389;-75
2022/11/14 02:44:27;;;;;;;33.53;20.50;;;;;;;;;;5045903;28;20051;-75
2022/11/14 02:46:53;;;;;;;32.38;21.75;;;;;;;;;;5044953;28;20041;-75
2022/11/14 02:49:19;;;;;;;31.42;20.58;;;;;;;;;;5044391;28;20051;-75
2022/11/14 02:51:45;;;;;;;36.22;23.70;;;;;;;;;;5043825;28;20049;-75
2022/11/14 02:54:11;;;;;;;37.15;22.77;;;;;;;;;;5076248;28;20503;-75
2022/11/14 02:56:37;;;;;;;34.33;21.73;;;;;;;;;;5048023;28;20113;-75
2022/11/14 02:59:03;;;;;;;33.95;22.73;;;;;;;;;;5076994;28;20108;-76
2022/11/14 03:01:29;;;;;;;32.63;20.45;;;;;;;;;;5043829;28;20057;-75
2022/11/14 03:03:55;;;;;;;34.35;20.88;;;;;;;;;;5044465;28;20052;-75
2022/11/14 03:06:21;;;;;;;32.67;21.60;;;;;;;;;;5050318;28;20123;-75
2022/11/14 03:08:47;;;;;;;33.70;24.10;;;;;;;;;;5047035;28;20492;-75
2022/11/14 03:11:13;;;;;;;35.90;23.38;;;;;;;;;;5049085;28;20143;-75
2022/11/14 03:13:39;;;;;;;36.90;23.38;;;;;;;;;;5047730;28;20417;-75
2022/11/14 03:16:06;;;;;;;36.28;22.33;;;;;;;;;;5049540;28;20071;-75
2022/11/14 03:18:32;;;;;;;31.88;23.27;;;;;;;;;;5052667;28;20075;-75
2022/11/14 03:21:05;;;;;;;35.10;24.02;;;;;;;;;;5053617;28;20614;-75
2022/11/14 03:23:31;;;;;;;33.38;22.45;;;;;;;;;;5048788;28;20045;-75
2022/11/14 03:25:59;;;;;;;38.35;24.75;;;;;;;;;;5079439;28;20094;-76
2022/11/14 03:28:25;;;;;;;34.30;23.50;;;;;;;;;;5047188;28;20045;-76
2022/11/14 03:30:51;;;;;;;33.88;23.05;;;;;;;;;;5049770;28;20087;-76
2022/11/14 03:33:17;;;;;;;35.90;24.83;;;;;;;;;;5048223;28;20400;-76
2022/11/14 03:35:43;;;;;;;36.05;24.67;;;;;;;;;;5079560;28;20059;-76
2022/11/14 03:38:09;;;;;;;33.75;23.70;;;;;;;;;;5058412;28;20041;-75
2022/11/14 03:40:38;;;;;;;37.03;25.45;;;;;;;;;;5046570;28;20060;-75
2022/11/14 03:43:04;;;;;;;37.15;23.88;;;;;;;;;;5047160;28;20504;-76
2022/11/14 03:45:30;;;;;;;39.38;24.83;;;;;;;;;;5047529;28;20473;-75
2022/11/14 03:47:56;;;;;;;37.00;24.40;;;;;;;;;;5080856;28;20052;-75
2022/11/14 03:50:22;;;;;;;36.95;24.35;;;;;;;;;;5049952;28;20051;-76
2022/11/14 03:52:49;;;;;;;36.45;24.42;;;;;;;;;;5079091;28;20437;-75
2022/11/14 03:55:15;;;;;;;35.65;24.25;;;;;;;;;;5041278;28;20088;-75
2022/11/14 03:57:41;;;;;;;35.25;23.92;;;;;;;;;;5051101;28;20044;-75
2022/11/14 04:00:07;;;;;;;36.40;24.35;;;;;;;;;;5049539;28;20041;-75
2022/11/14 04:02:36;;;;;;;36.35;24.13;;;;;;;;;;5047776;28;20604;-75
2022/11/14 04:05:02;;;;;;;37.15;24.20;;;;;;;;;;5047457;28;20447;-75
2022/11/14 04:07:28;;;;;;;33.97;22.65;;;;;;;;;;5044167;28;20378;-75
2022/11/14 04:09:54;;;;;;;36.28;26.00;;;;;;;;;;5047234;28;20076;-75
2022/11/14 04:12:20;;;;;;;39.05;23.65;;;;;;;;;;5043749;28;20049;-75
2022/11/14 04:14:46;;;;;;;42.33;26.90;;;;;;;;;;5045236;28;20122;-75
2022/11/14 04:17:12;;;;;;;37.63;24.48;;;;;;;;;;5046489;28;20032;-75
2022/11/14 04:19:38;;;;;;;37.90;25.80;;;;;;;;;;5049038;28;20068;-75
2022/11/14 04:22:05;;;;;;;39.55;26.10;;;;;;;;;;5048836;28;20135;-75
2022/11/14 04:24:31;;;;;;;40.05;27.30;;;;;;;;;;5078746;28;20480;-75
2022/11/14 04:26:57;;;;;;;37.67;26.58;;;;;;;;;;5046259;28;20404;-75
2022/11/14 04:29:23;;;;;;;40.65;26.80;;;;;;;;;;5045604;28;20079;-75
2022/11/14 04:31:49;;;;;;;38.25;26.63;;;;;;;;;;5050536;28;20063;-75
2022/11/14 04:34:15;;;;;;;39.53;25.20;;;;;;;;;;5079400;28;20065;-76
2022/11/14 04:36:41;;;;;;;40.35;26.08;;;;;;;;;;5048314;28;20574;-75
2022/11/14 04:39:07;;;;;;;42.92;29.45;;;;;;;;;;5045843;28;20496;-75
2022/11/14 04:41:33;;;;;;;44.40;29.20;;;;;;;;;;5047806;28;20033;-75
2022/11/14 04:43:59;;;;;;;43.50;28.92;;;;;;;;;;5080423;28;20045;-75
2022/11/14 04:46:25;;;;;;;43.65;28.23;;;;;;;;;;5043537;28;20060;-75
2022/11/14 04:48:51;;;;;;;43.10;27.80;;;;;;;;;;5047432;28;20484;-75
2022/11/14 04:51:17;;;;;;;44.83;28.40;;;;;;;;;;5048718;28;20055;-75
2022/11/14 04:53:43;;;;;;;42.50;27.48;;;;;;;;;;5045903;28;20049;-75
2022/11/14 04:56:09;;;;;;;46.75;30.92;;;;;;;;;;5046785;28;20043;-75
2022/11/14 04:58:35;;;;;;;49.28;31.88;;;;;;;;;;5043213;28;20068;-76
2022/11/14 05:01:08;;;;;;;50.50;32.40;;;;;;;;;;5042552;28;20123;-75
2022/11/14 05:03:34;;;;;;;50.70;32.83;;;;;;;;;;5047980;28;20041;-75
2022/11/14 05:06:01;;;;;;;51.83;31.40;;;;;;;;;;5077913;28;20750;-75
2022/11/14 05:08:27;;;;;;;47.15;29.67;;;;;;;;;;5045670;28;20053;-75
2022/11/14 05:10:53;;;;;;;52.90;33.47;;;;;;;;;;5077918;28;20056;-75
2022/11/14 05:13:19;;;;;;;51.97;33.75;;;;;;;;;;5044922;28;20049;-75
2022/11/14 05:15:45;;;;;;;52.72;33.38;;;;;;;;;;5042175;28;20412;-76
2022/11/14 05:18:11;;;;;;;49.80;32.47;;;;;;;;;;5046058;28;20036;-76
2022/11/14 05:20:37;;;;;;;52.85;32.78;;;;;;;;;;5042828;28;20126;-75
2022/11/14 05:23:03;;;;;;;52.25;32.88;;;;;;;;;;5045351;28;20431;-75
2022/11/14 05:25:32;;;;;;;53.80;34.03;;;;;;;;;;5044015;28;20042;-75
2022/11/14 05:27:58;;;;;;;50.53;32.35;;;;;;;;;;5044888;28;20041;-75
2022/11/14 05:30:24;;;;;;;50.45;33.20;;;;;;;;;;5045128;28;20411;-75
2022/11/14 05:32:56;;;;;;;51.90;33.45;;;;;;;;;;5045890;28;20511;-75
2022/11/14 05:35:22;;;;;;;53.50;32.90;;;;;;;;;;5040174;28;20059;-76
2022/11/14 05:37:48;;;;;;;48.88;31.95;;;;;;;;;;5079093;28;20064;-75
2022/11/14 05:40:15;;;;;;;42.28;24.58;;;;;;;;;;5076315;28;20052;-75
2022/11/14 05:42:41;;;;;;;49.80;32.45;;;;;;;;;;5075263;28;20049;-75
2022/11/14 05:45:08;;;;;;;51.95;32.05;;;;;;;;;;5044757;28;20127;-75
2022/11/14 05:47:34;;;;;;;51.38;32.22;;;;;;;;;;5048884;28;20092;-76
2022/11/14 05:50:00;;;;;;;53.83;33.50;;;;;;;;;;5042353;28;20569;-75
2022/11/14 05:52:26;;;;;;;56.80;34.45;;;;;;;;;;5045340;28;20063;-75
2022/11/14 05:54:52;;;;;;;51.30;33.00;;;;;;;;;;5046422;28;20063;-75
2022/11/14 05:57:18;;;;;;;51.45;32.65;;;;;;;;;;5045315;28;20049;-75
2022/11/14 05:59:44;;;;;;;51.70;32.50;;;;;;;;;;5045267;28;20071;-75
2022/11/14 06:02:10;;;;;;;50.15;31.42;;;;;;;;;;5080115;28;20045;-75
2022/11/14 06:04:36;;;;;;;48.35;30.88;;;;;;;;;;5044175;28;20449;-75
2022/11/14 06:07:02;;;;;;;57.35;34.70;;;;;;;;;;5047153;28;20489;-75
2022/11/14 06:09:28;;;;;;;53.92;33.75;;;;;;;;;;5046130;28;20056;-75
2022/11/14 06:11:54;;;;;;;55.40;34.53;;;;;;;;;;5045994;28;20041;-75
2022/11/14 06:14:20;;;;;;;51.75;31.33;;;;;;;;;;5048344;28;20374;-75
2022/11/14 06:16:46;;;;;;;53.35;32.67;;;;;;;;;;5047972;28;20096;-75
2022/11/14 06:19:12;;;;;;;55.17;34.45;;;;;;;;;;5047689;28;20056;-75
2022/11/14 06:21:38;;;;;;;57.88;34.65;;;;;;;;;;5046316;28;20469;-75
2022/11/14 06:24:04;;;;;;;55.35;34.42;;;;;;;;;;5050414;28;20048;-75
2022/11/14 06:26:31;;;;;;;58.90;36.10;;;;;;;;;;5046038;28;20409;-75
2022/11/14 06:28:57;;;;;;;56.53;34.60;;;;;;;;;;5042381;28;20488;-76
2022/11/14 06:31:24;;;;;;;55.00;32.28;;;;;;;;;;5044784;28;21399;-75
2022/11/14 06:33:50;;;;;;;56.85;35.08;;;;;;;;;;5051616;28;20474;-75
2022/11/14 06:36:17;;;;;;;51.45;33.42;;;;;;;;;;5041505;28;20081;-76
2022/11/14 06:38:43;;;;;;;54.25;35.08;;;;;;;;;;5043569;28;20049;-76
2022/11/14 06:41:12;;;;;;;49.65;31.02;;;;;;;;;;5075446;28;20095;-76
2022/11/14 06:43:39;;;;;;;53.80;34.92;;;;;;;;;;5048057;28;20053;-76
2022/11/14 06:46:06;;;;;;;51.28;33.28;;;;;;;;;;5042354;28;20099;-76
2022/11/14 06:48:32;;;;;;;52.15;33.67;;;;;;;;;;5051780;28;20049;-76
2022/11/14 06:50:59;;;;;;;60.22;35.83;;;;;;;;;;5047348;28;20076;-75
2022/11/14 06:53:25;;;;;;;57.83;34.63;;;;;;;;;;5047441;28;20049;-74
2022/11/14 06:55:55;;;;;;;51.90;31.27;;;;;;;;;;5084410;28;20037;-75
2022/11/14 06:58:22;;;;;;;53.60;34.47;;;;;;;;;;5049164;28;20485;-75
2022/11/14 07:00:48;;;;;;;59.05;34.95;;;;;;;;;;5048102;28;20471;-75
2022/11/14 07:03:14;;;;;;;52.55;33.10;;;;;;;;;;5048444;28;20083;-76
2022/11/14 07:05:40;;;;;;;58.08;34.25;;;;;;;;;;5049776;28;20055;-75
2022/11/14 07:08:06;;;;;;;56.00;34.78;;;;;;;;;;5083056;28;20279;-75
2022/11/14 07:10:32;;;;;;;55.72;34.63;;;;;;;;;;5049973;28;20461;-75
2022/11/14 07:12:58;;;;;;;54.63;34.25;;;;;;;;;;5081917;28;20163;-75
2022/11/14 07:15:24;;;;;;;54.75;33.28;;;;;;;;;;5049061;28;20119;-76
2022/11/14 07:17:50;;;;;;;53.95;34.22;;;;;;;;;;5050679;28;20118;-75
2022/11/14 07:20:17;;;;;;;53.63;32.88;;;;;;;;;;5047858;28;20048;-75
2022/11/14 07:22:45;;;;;;;57.78;36.03;;;;;;;;;;5045657;28;20044;-75
2022/11/14 07:25:11;;;;;;;53.80;33.38;;;;;;;;;;5049306;28;20037;-75
2022/11/14 07:27:37;;;;;;;55.17;33.40;;;;;;;;;;5048857;28;20040;-75
2022/11/14 07:30:04;;;;;;;54.05;33.90;;;;;;;;;;5052167;28;20545;-75
2022/11/14 07:32:30;;;;;;;50.83;31.95;;;;;;;;;;5048900;28;20476;-75
2022/11/14 07:34:56;;;;;;;54.22;34.10;;;;;;;;;;5050528;28;20061;-75
2022/11/14 07:37:23;;;;;;;53.47;33.88;;;;;;;;;;5049011;28;20048;-75
2022/11/14 07:39:49;;;;;;;59.83;35.17;;;;;;;;;;5047772;28;20052;-75
2022/11/14 07:42:15;;;;;;;54.03;35.20;;;;;;;;;;5042872;28;20041;-75
2022/11/14 07:44:41;;;;;;;51.42;32.75;;;;;;;;;;5047374;28;20159;-75
2022/11/14 07:47:07;;;;;;;48.42;30.98;;;;;;;;;;5049648;28;20132;-75
2022/11/14 07:49:33;;;;;;;51.53;33.33;;;;;;;;;;5048462;28;20140;-75
2022/11/14 07:51:59;;;;;;;53.72;33.45;;;;;;;;;;5049860;28;20049;-75
2022/11/14 07:54:25;;;;;;;49.67;33.42;;;;;;;;;;5048354;28;20049;-75
2022/11/14 07:56:51;;;;;;;54.78;34.85;;;;;;;;;;5048536;28;20044;-75
2022/11/14 07:59:20;;;;;;;48.65;30.05;;;;;;;;;;5047880;28;20979;-75
2022/11/14 08:01:46;;;;;;;52.40;33.70;;;;;;;;;;5047233;28;20056;-76
2022/11/14 08:04:12;;;;;;;50.03;33.28;;;;;;;;;;5047788;28;20049;-75
2022/11/14 08:06:38;;;;;;;56.55;35.20;;;;;;;;;;5048165;28;20036;-76
2022/11/14 08:09:04;;;;;;;51.58;34.25;;;;;;;;;;5051180;28;20134;-75
2022/11/14 08:11:48;;;;;;;49.83;33.58;;;;;;;;;;5044534;28;20400;-75
2022/11/14 08:14:17;;;;;;;52.03;32.60;;;;;;;;;;5047401;28;20052;-75
2022/11/14 08:16:43;;;;;;;48.40;31.85;;;;;;;;;;5048253;28;20055;-75
2022/11/14 08:19:09;;;;;;;52.20;32.22;;;;;;;;;;5047472;28;20049;-75
2022/11/14 08:21:35;;;;;;;52.58;34.28;;;;;;;;;;5049609;28;20055;-75
2022/11/14 08:24:01;;;;;;;50.78;33.10;;;;;;;;;;5048701;28;20066;-75
2022/11/14 08:26:27;;;;;;;49.13;31.80;;;;;;;;;;5047657;28;20045;-75
2022/11/14 08:28:54;;;;;;;51.47;33.40;;;;;;;;;;5081371;28;20458;-76
2022/11/14 08:31:20;;;;;;;52.20;33.95;;;;;;;;;;5046980;28;20041;-75
2022/11/14 08:33:49;;;;;;;52.35;32.85;;;;;;;;;;5047618;28;20063;-75
2022/11/14 08:36:15;;;;;;;52.85;33.20;;;;;;;;;;5048852;28;20556;-75
2022/11/14 08:38:41;;;;;;;52.50;33.03;;;;;;;;;;5045516;28;20052;-75
2022/11/14 08:41:07;;;;;;;53.70;33.88;;;;;;;;;;5048095;28;20098;-75
2022/11/14 08:43:33;;;;;;;52.42;32.63;;;;;;;;;;5049983;28;20090;-75
2022/11/14 08:46:00;;;;;;;52.95;32.13;;;;;;;;;;5080694;28;20052;-75
2022/11/14 08:48:26;;;;;;;46.97;31.15;;;;;;;;;;5048783;28;20651;-75
2022/11/14 08:50:55;;;;;;;46.70;29.63;;;;;;;;;;5081512;28;20044;-75
2022/11/14 08:53:22;;;;;;;49.95;32.58;;;;;;;;;;5046845;28;20094;-75
2022/11/14 08:55:48;;;;;;;51.55;31.50;;;;;;;;;;5048830;28;20072;-75
2022/11/14 08:58:14;;;;;;;48.40;32.60;;;;;;;;;;5046598;28;20055;-75
2022/11/14 09:00:40;;;;;;;49.97;31.15;;;;;;;;;;5046078;28;20029;-76
2022/11/14 09:03:12;;;;;;;48.65;32.17;;;;;;;;;;5046354;28;20120;-75
2022/11/14 09:05:38;;;;;;;49.25;31.33;;;;;;;;;;5047264;28;20077;-75
2022/11/14 09:08:04;;;;;;;51.67;32.67;;;;;;;;;;5081973;28;20480;-75
2022/11/14 09:10:30;;;;;;;47.20;30.45;;;;;;;;;;5046314;28;20493;-75
2022/11/14 09:12:56;;;;;;;49.75;32.13;;;;;;;;;;5043219;28;20076;-75
2022/11/14 09:15:22;;;;;;;48.22;32.80;;;;;;;;;;5046923;28;20064;-75
2022/11/14 09:17:48;;;;;;;51.08;33.60;;;;;;;;;;5079108;28;20048;-75
2022/11/14 09:20:14;;;;;;;49.53;32.75;;;;;;;;;;5046010;28;20428;-75
2022/11/14 09:22:40;;;;;;;52.13;33.28;;;;;;;;;;5043568;28;20560;-75
2022/11/14 09:25:07;;;;;;;51.53;32.08;;;;;;;;;;5046148;28;20136;-75
2022/11/14 09:27:33;;;;;;;51.58;32.50;;;;;;;;;;5062788;28;20440;-75
2022/11/14 09:29:59;;;;;;;51.95;32.97;;;;;;;;;;5047785;28;20449;-75
2022/11/14 09:32:25;;;;;;;48.72;30.02;;;;;;;;;;5039837;28;20045;-76
2022/11/14 09:34:51;;;;;;;48.72;32.47;;;;;;;;;;5044152;28;20061;-76
2022/11/14 09:37:17;;;;;;;56.60;38.83;;;;;;;;;;5048474;28;20427;-76
2022/11/14 09:39:43;;;;;;;53.42;33.45;;;;;;;;;;5078641;28;20508;-76
2022/11/14 09:42:12;;;;;;;49.00;32.25;;;;;;;;;;5043704;28;20044;-76
2022/11/14 09:44:50;;;;;;;51.80;34.30;;;;;;;;;;5047122;28;20098;-76
2022/11/14 09:47:20;;;;;;;42.83;27.05;;;;;;;;;;5046830;28;20045;-76
2022/11/14 09:49:47;;;;;;;53.38;32.30;;;;;;;;;;5047626;28;20052;-76
2022/11/14 09:52:19;;;;;;;47.05;32.78;;;;;;;;;;5045914;28;20049;-76
2022/11/14 09:54:53;;;;;;;50.22;32.25;;;;;;;;;;5046230;28;20049;-76
2022/11/14 09:57:19;;;;;;;46.97;30.50;;;;;;;;;;5047797;28;20370;-76
2022/11/14 09:59:45;;;;;;;47.60;31.27;;;;;;;;;;5045301;28;20041;-76
2022/11/14 10:02:19;;;;;;;48.28;32.40;;;;;;;;;;5045244;28;20125;-76
2022/11/14 10:04:45;;;;;;;;;;;;;;;;;;5048701;28;20095;-76
2022/11/14 10:07:35;;;;;;;48.78;30.67;;;;;;;;;;5047611;28;19924;-76
2022/11/14 10:10:20;;;;;;;44.75;30.80;;;;;;;;;;5046491;28;20084;-76
2022/11/14 10:12:55;;;;;;;49.95;32.20;;;;;;;;;;5042305;28;20450;-76
2022/11/14 10:15:25;;;;;;;48.75;31.08;;;;;;;;;;5050332;28;20095;-76
2022/11/14 10:17:57;;;;;;;51.97;32.00;;;;;;;;;;5082101;28;20115;-76
2022/11/14 10:20:30;;;;;;;51.60;33.60;;;;;;;;;;5049078;28;20044;-76
2022/11/14 10:23:15;;;;;;;47.00;31.23;;;;;;;;;;5082341;28;20122;-76
2022/11/14 10:25:43;;;;;;;46.50;32.28;;;;;;;;;;5051219;28;20045;-76
2022/11/14 10:28:12;;;;;;;49.55;32.10;;;;;;;;;;5049660;28;20095;-76
2022/11/14 10:30:40;;;;;;;45.65;31.50;;;;;;;;;;5048325;28;20084;-76
2022/11/14 10:33:15;;;;;;;44.50;30.25;;;;;;;;;;5049760;28;20072;-76
2022/11/14 10:36:04;;;;;;;47.92;30.67;;;;;;;;;;5083768;28;20048;-76
2022/11/14 10:38:30;;;;;;;47.90;31.20;;;;;;;;;;5048902;28;20080;-76
2022/11/14 10:41:01;;;;;;;46.33;29.75;;;;;;;;;;5051051;28;20116;-75
2022/11/14 10:43:33;;;;;;;42.45;28.52;;;;;;;;;;5048368;28;20048;-75
2022/11/14 10:46:02;;;;;;;43.40;29.40;;;;;;;;;;5050088;28;20044;-76
2022/11/14 10:48:34;;;;;;;45.47;30.50;;;;;;;;;;5051695;28;20524;-76
2022/11/14 10:51:12;;;;;;;45.15;30.65;;;;;;;;;;5049852;28;20083;-76
2022/11/14 10:53:47;;;;;;;43.47;28.60;;;;;;;;;;5083136;28;20091;-76
2022/11/14 10:56:13;;;;;;;42.13;28.13;;;;;;;;;;5050814;28;20378;-76
2022/11/14 10:58:40;;;;;;;46.35;30.15;;;;;;;;;;5049117;28;20045;-76
2022/11/14 11:01:25;;;;;;;46.17;30.65;;;;;;;;;;5048154;28;20497;-76
2022/11/14 11:03:51;;;;;;;43.67;30.10;;;;;;;;;;5048180;28;20072;-75
2022/11/14 11:06:27;;;;;;;43.38;30.15;;;;;;;;;;5080407;28;20044;-76
2022/11/14 11:11:40;;;;;;;46.30;29.10;;;;;;;;;;5050856;28;20037;-76
2022/11/14 11:14:15;;;;;;;42.13;28.15;;;;;;;;;;5050418;28;20052;-76
2022/11/14 11:16:41;;;;;;;43.20;30.75;;;;;;;;;;5047821;28;20041;-76
2022/11/14 11:19:26;;;;;;;42.17;29.52;;;;;;;;;;5049609;28;20139;-76
2022/11/14 11:21:52;;;;;;;45.40;30.60;;;;;;;;;;5079611;28;20121;-75
2022/11/14 11:24:32;;;;;;;43.28;29.85;;;;;;;;;;5048193;28;20045;-75
2022/11/14 11:27:17;;;;;;;42.70;30.00;;;;;;;;;;5049464;28;20049;-75
2022/11/14 11:29:43;;;;;;;41.63;27.75;;;;;;;;;;5049848;28;20049;-76
2022/11/14 11:32:09;;;;;;;42.90;29.85;;;;;;;;;;5048624;28;20047;-76
2022/11/14 11:34:35;;;;;;;41.88;29.63;;;;;;;;;;5049379;28;20132;-76
2022/11/14 11:37:22;;;;;;;44.78;28.50;;;;;;;;;;5078461;28;20044;-76
2022/11/14 11:39:50;;;;;;;42.53;27.95;;;;;;;;;;5049079;28;20044;-76
2022/11/14 11:42:25;;;;;;;40.63;27.95;;;;;;;;;;5048748;28;20197;-76
2022/11/14 11:44:57;;;;;;;36.45;26.73;;;;;;;;;;5051229;28;20407;-76
2022/11/14 11:47:25;;;;;;;39.33;26.85;;;;;;;;;;5046765;28;20492;-76
2022/11/14 11:49:51;;;;;;;39.00;27.33;;;;;;;;;;5050754;28;20045;-76
2022/11/14 11:52:23;;;;;;;35.72;25.80;;;;;;;;;;5047197;28;20132;-76
2022/11/14 11:55:01;;;;;;;37.90;27.27;;;;;;;;;;5047486;28;20045;-76
2022/11/14 11:57:33;;;;;;;37.42;26.73;;;;;;;;;;5048874;28;20041;-76
2022/11/14 12:00:14;;;;;;;40.45;27.25;;;;;;;;;;5049765;28;20045;-76
2022/11/14 12:02:45;;;;;;;34.55;25.45;;;;;;;;;;5064078;28;20063;-76
2022/11/14 12:05:34;;;;;;;35.72;25.77;;;;;;;;;;5050100;28;20052;-76
2022/11/14 12:08:07;;;;;;;35.42;25.52;;;;;;;;;;5051472;28;20044;-75
2022/11/14 12:10:36;;;;;;;37.08;26.35;;;;;;;;;;5046651;28;20050;-76
2022/11/14 12:13:05;;;;;;;36.53;26.52;;;;;;;;;;5047672;28;20503;-76
2022/11/14 12:15:41;;;;;;;37.85;26.10;;;;;;;;;;5048680;28;20551;-76
2022/11/14 12:18:36;;;;;;;35.00;25.50;;;;;;;;;;5049041;28;20056;-76
2022/11/14 12:21:11;;;;;;;36.25;26.33;;;;;;;;;;5037502;28;20069;-77
2022/11/14 12:23:52;;;;;;;38.15;27.23;;;;;;;;;;5047993;28;20052;-76
2022/11/14 12:26:32;;;;;;;37.92;27.63;;;;;;;;;;5080832;28;20513;-76
2022/11/14 12:28:58;;;;;;;34.63;25.08;;;;;;;;;;5046482;28;20044;-76
2022/11/14 12:31:27;;;;;;;36.65;26.25;;;;;;;;;;5046201;28;20098;-76
2022/11/14 12:34:15;;;;;;;33.72;25.77;;;;;;;;;;5049529;28;20057;-76
2022/11/14 12:36:45;;;;;;;34.03;24.58;;;;;;;;;;5048628;28;20057;-76
2022/11/14 12:39:20;;;;;;;32.72;24.30;;;;;;;;;;5046007;28;20052;-76
2022/11/14 12:41:46;;;;;;;30.17;22.88;;;;;;;;;;5046465;28;20519;-76
2022/11/14 12:44:17;;;;;;;29.65;22.17;;;;;;;;;;5078064;28;20170;-76
2022/11/14 12:47:01;;;;;;;31.50;22.63;;;;;;;;;;5048842;28;20052;-77
2022/11/14 12:49:37;;;;;;;27.75;21.73;;;;;;;;;;5043115;28;20657;-76
2022/11/14 12:52:03;;;;;;;28.42;21.42;;;;;;;;;;5079579;28;20045;-77
2022/11/14 12:54:43;;;;;;;28.13;21.50;;;;;;;;;;5043369;28;20111;-77
2022/11/14 12:57:46;;;;;;;28.15;21.77;;;;;;;;;;5048429;28;20093;-77
2022/11/14 13:00:01;;;;;;;26.67;19.77;;;;;;;;;;5047578;28;20060;-77
2022/11/14 13:02:27;;;;;;;26.25;21.40;;;;;;;;;;5046666;28;20052;-77
2022/11/14 13:05:09;;;;;;;25.70;21.30;;;;;;;;;;5045515;28;20546;-76
2022/11/14 13:07:47;;;;;;;24.92;20.95;;;;;;;;;;5049807;28;20124;-77
2022/11/14 13:10:26;;;;;;;24.50;20.13;;;;;;;;;;5048122;28;20120;-77
2022/11/14 13:24:02;;;;;;;25.05;20.50;;;;;;;;;;5045439;28;20483;-77
2022/11/14 13:26:31;;;;;;;25.75;21.38;;;;;;;;;;5044176;28;20052;-77
2022/11/14 13:28:58;;;;;;;24.58;20.67;;;;;;;;;;5047805;28;20052;-77
2022/11/14 13:31:37;;;;;;;26.23;20.30;;;;;;;;;;5045678;28;20089;-77
2022/11/14 13:34:21;;;;;;;25.38;20.50;;;;;;;;;;5047513;28;20079;-77
2022/11/14 13:36:58;;;;;;;26.50;21.88;;;;;;;;;;5046808;28;20472;-77
2022/11/14 13:39:35;;;;;;;26.08;21.10;;;;;;;;;;5047339;28;20041;-77
2022/11/14 13:42:07;;;;;;;25.63;20.98;;;;;;;;;;5079882;28;20052;-76
2022/11/14 13:44:33;;;;;;;28.70;22.00;;;;;;;;;;5047844;28;20056;-77
2022/11/14 13:47:19;;;;;;;26.13;21.42;;;;;;;;;;5041410;28;20475;-77
2022/11/14 13:50:03;;;;;;;26.27;21.67;;;;;;;;;;5047522;28;20049;-77
2022/11/14 13:52:33;;;;;;;26.85;21.88;;;;;;;;;;5044018;28;20090;-77
2022/11/14 13:55:00;;;;;;;26.98;21.17;;;;;;;;;;5047258;28;20068;-77
2022/11/14 13:57:26;;;;;;;25.83;21.42;;;;;;;;;;5046405;28;20049;-76
2022/11/14 14:00:01;;;;;;;28.40;22.13;;;;;;;;;;5079871;28;20048;-77
2022/11/14 14:02:27;;;;;;;26.80;20.95;;;;;;;;;;5042687;28;20053;-76
2022/11/14 14:04:53;;;;;;;27.50;22.20;;;;;;;;;;5049387;28;20045;-77
2022/11/14 14:07:22;;;;;;;29.40;22.75;;;;;;;;;;5044815;28;20045;-76
2022/11/14 14:09:54;;;;;;;28.77;23.30;;;;;;;;;;5046335;28;20489;-77
2022/11/14 14:12:23;;;;;;;30.23;22.60;;;;;;;;;;5047332;28;20151;-77
2022/11/14 14:15:00;;;;;;;30.95;23.27;;;;;;;;;;5080389;28;20069;-77
2022/11/14 14:17:30;;;;;;;28.60;22.27;;;;;;;;;;5047210;28;20055;-77
2022/11/14 14:20:17;;;;;;;30.15;22.30;;;;;;;;;;5047178;28;20166;-77
2022/11/14 14:23:17;;;;;;;28.92;22.15;;;;;;;;;;5078149;28;20055;-77
2022/11/14 14:26:01;;;;;;;28.67;23.50;;;;;;;;;;5047279;28;20140;-78
2022/11/14 14:28:55;;;;;;;29.60;22.83;;;;;;;;;;5047233;28;20120;-78
2022/11/14 14:31:24;;;;;;;30.75;23.65;;;;;;;;;;5045432;28;20053;-77
2022/11/14 14:33:51;;;;;;;27.50;21.42;;;;;;;;;;5047451;28;20057;-78
2022/11/14 14:36:18;;;;;;;26.63;22.42;;;;;;;;;;5045003;28;20440;-78
2022/11/14 14:38:48;;;;;;;29.10;22.35;;;;;;;;;;5046541;28;20048;-77
2022/11/14 14:41:16;;;;;;;31.23;24.60;;;;;;;;;;5047219;28;20056;-77